createdAt,value
2016-12-19T00:00:11.949Z,20.26
2016-12-19T00:01:11.618Z,20.3
2016-12-19T00:02:11.600Z,20.19
2016-12-19T00:03:11.909Z,20.19
2016-12-19T00:04:11.884Z,20.2
2016-12-19T00:05:11.553Z,20.19
2016-12-19T00:06:11.857Z,20.26
2016-12-19T00:07:11.831Z,20.17
2016-12-19T00:08:11.817Z,20.17
2016-12-19T00:09:11.826Z,20.26
2016-12-19T00:10:11.475Z,20.2
2016-12-19T00:11:11.766Z,20.22
2016-12-19T00:12:11.753Z,20.2
2016-12-19T00:13:11.733Z,20.25
2016-12-19T00:14:11.720Z,20.22
2016-12-19T00:15:11.389Z,20.23
2016-12-19T00:16:11.686Z,20.19
2016-12-19T00:17:11.675Z,20.19
2016-12-19T00:18:11.661Z,20.23
2016-12-19T00:19:11.344Z,20.13
2016-12-19T00:20:11.635Z,20.2
2016-12-19T00:21:11.601Z,20.16
2016-12-19T00:22:10.965Z,20.22
2016-12-19T00:23:11.563Z,20.1
2016-12-19T00:24:11.558Z,20.04
2016-12-19T00:25:11.541Z,20.12
2016-12-19T00:26:11.208Z,20.13
2016-12-19T00:27:11.510Z,20.13
2016-12-19T00:28:11.491Z,20.12
2016-12-19T00:29:11.476Z,20.2
2016-12-19T00:30:11.463Z,20.13
2016-12-19T00:31:11.439Z,20.13
2016-12-19T00:32:11.425Z,20.1
2016-12-19T00:33:11.091Z,20.12
2016-12-19T00:34:11.390Z,20.1
2016-12-19T00:35:11.372Z,20.13
2016-12-19T00:36:11.041Z,20.13
2016-12-19T00:37:11.024Z,20.07
2016-12-19T00:38:11.325Z,20.1
2016-12-19T00:39:11.306Z,20.07
2016-12-19T00:40:11.294Z,20.08
2016-12-19T00:41:11.275Z,19.98
2016-12-19T00:42:11.262Z,19.95
2016-12-19T00:43:11.243Z,20.07
2016-12-19T00:44:11.224Z,19.97
2016-12-19T00:45:10.894Z,19.94
2016-12-19T00:46:11.191Z,19.95
2016-12-19T00:47:11.182Z,19.87
2016-12-19T00:48:11.167Z,19.97
2016-12-19T00:49:11.146Z,20.02
2016-12-19T00:50:11.122Z,19.95
2016-12-19T00:51:11.107Z,19.94
2016-12-19T00:52:11.088Z,19.95
2016-12-19T00:53:11.079Z,19.92
2016-12-19T00:54:11.061Z,19.94
2016-12-19T00:55:11.038Z,19.95
2016-12-19T00:56:11.028Z,19.9
2016-12-19T00:57:11.008Z,19.94
2016-12-19T00:58:10.999Z,19.97
2016-12-19T00:59:10.977Z,19.86
2016-12-19T01:00:10.961Z,19.85
2016-12-19T01:01:10.975Z,19.83
2016-12-19T01:02:10.926Z,19.83
2016-12-19T01:03:10.909Z,19.86
2016-12-19T01:04:10.905Z,19.86
2016-12-19T01:05:10.876Z,19.87
2016-12-19T01:06:10.861Z,19.79
2016-12-19T01:07:10.532Z,19.86
2016-12-19T01:08:10.828Z,19.86
2016-12-19T01:09:10.499Z,19.89
2016-12-19T01:10:10.794Z,19.83
2016-12-19T01:11:10.781Z,19.87
2016-12-19T01:12:10.443Z,19.79
2016-12-19T01:13:10.432Z,19.83
2016-12-19T01:14:10.734Z,19.78
2016-12-19T01:15:10.398Z,19.86
2016-12-19T01:16:10.692Z,19.92
2016-12-19T01:17:10.685Z,19.78
2016-12-19T01:18:10.667Z,19.83
2016-12-19T01:19:10.339Z,19.8
2016-12-19T01:20:10.640Z,19.83
2016-12-19T01:21:10.618Z,19.82
2016-12-19T01:22:10.601Z,19.8
2016-12-19T01:23:10.602Z,19.82
2016-12-19T01:24:10.251Z,19.75
2016-12-19T01:25:10.230Z,19.78
2016-12-19T01:26:10.530Z,19.83
2016-12-19T01:27:10.519Z,19.85
2016-12-19T01:28:10.496Z,19.86
2016-12-19T01:29:10.487Z,19.83
2016-12-19T01:30:10.149Z,19.82
2016-12-19T01:31:10.451Z,19.82
2016-12-19T01:32:09.827Z,19.71
2016-12-19T01:33:10.098Z,19.83
2016-12-19T01:34:10.081Z,19.7
2016-12-19T01:35:10.069Z,19.75
2016-12-19T01:36:10.052Z,19.82
2016-12-19T01:37:10.035Z,19.76
2016-12-19T01:38:10.332Z,19.76
2016-12-19T01:39:10.313Z,19.82
2016-12-19T01:40:10.342Z,19.82
2016-12-19T01:41:10.282Z,19.76
2016-12-19T01:42:10.263Z,19.75
2016-12-19T01:43:09.934Z,19.72
2016-12-19T01:44:10.231Z,19.72
2016-12-19T01:45:09.897Z,19.75
2016-12-19T01:46:10.194Z,19.71
2016-12-19T01:47:09.873Z,19.71
2016-12-19T01:48:10.165Z,19.67
2016-12-19T01:49:09.837Z,19.71
2016-12-19T01:50:10.137Z,19.7
2016-12-19T01:51:10.117Z,19.68
2016-12-19T01:52:09.795Z,19.64
2016-12-19T01:53:10.079Z,19.67
2016-12-19T01:54:09.752Z,19.62
2016-12-19T01:55:09.739Z,19.62
2016-12-19T01:56:10.038Z,19.76
2016-12-19T01:57:10.021Z,19.75
2016-12-19T01:58:10.001Z,19.75
2016-12-19T01:59:09.984Z,19.65
2016-12-19T02:00:09.973Z,19.67
2016-12-19T02:01:09.948Z,19.64
2016-12-19T02:02:09.935Z,19.65
2016-12-19T02:03:09.597Z,19.71
2016-12-19T02:04:09.583Z,19.65
2016-12-19T02:05:09.573Z,19.65
2016-12-19T02:06:09.543Z,19.62
2016-12-19T02:07:09.847Z,19.62
2016-12-19T02:08:09.519Z,19.71
2016-12-19T02:09:09.812Z,19.75
2016-12-19T02:10:09.805Z,19.62
2016-12-19T02:11:09.783Z,19.67
2016-12-19T02:12:09.770Z,19.71
2016-12-19T02:13:09.749Z,19.62
2016-12-19T02:14:09.729Z,19.62
2016-12-19T02:15:09.716Z,19.64
2016-12-19T02:16:09.695Z,19.61
2016-12-19T02:17:09.682Z,19.61
2016-12-19T02:18:09.351Z,19.6
2016-12-19T02:19:09.652Z,19.58
2016-12-19T02:20:09.634Z,19.65
2016-12-19T02:21:09.619Z,19.65
2016-12-19T02:22:09.290Z,19.62
2016-12-19T02:23:09.583Z,19.58
2016-12-19T02:24:09.243Z,19.67
2016-12-19T02:25:09.545Z,19.64
2016-12-19T02:26:09.529Z,19.61
2016-12-19T02:27:08.885Z,19.61
2016-12-19T02:28:09.201Z,19.61
2016-12-19T02:29:09.170Z,19.62
2016-12-19T02:30:09.472Z,19.57
2016-12-19T02:31:09.445Z,19.64
2016-12-19T02:32:09.435Z,19.64
2016-12-19T02:33:09.419Z,19.61
2016-12-19T02:34:09.398Z,19.62
2016-12-19T02:35:09.381Z,19.61
2016-12-19T02:36:09.047Z,19.61
2016-12-19T02:37:09.038Z,19.61
2016-12-19T02:38:09.334Z,19.62
2016-12-19T02:39:09.000Z,19.55
2016-12-19T02:40:09.294Z,19.53
2016-12-19T02:41:08.963Z,19.6
2016-12-19T02:42:09.268Z,19.53
2016-12-19T02:43:09.248Z,19.65
2016-12-19T02:44:09.230Z,19.62
2016-12-19T02:45:08.896Z,19.62
2016-12-19T02:46:08.887Z,19.65
2016-12-19T02:47:09.180Z,19.6
2016-12-19T02:48:09.162Z,19.55
2016-12-19T02:49:09.145Z,19.58
2016-12-19T02:50:09.128Z,19.6
2016-12-19T02:51:09.117Z,19.55
2016-12-19T02:52:09.098Z,19.55
2016-12-19T02:53:09.082Z,19.61
2016-12-19T02:54:08.433Z,19.55
2016-12-19T02:55:09.047Z,19.57
2016-12-19T02:56:09.039Z,19.55
2016-12-19T02:57:09.011Z,19.55
2016-12-19T02:58:08.992Z,19.57
2016-12-19T02:59:08.977Z,19.6
2016-12-19T03:00:08.650Z,19.57
2016-12-19T03:01:08.632Z,19.53
2016-12-19T03:02:08.613Z,19.55
2016-12-19T03:03:08.910Z,19.55
2016-12-19T03:04:08.579Z,19.52
2016-12-19T03:05:08.564Z,19.53
2016-12-19T03:06:08.861Z,19.4
2016-12-19T03:07:08.843Z,19.57
2016-12-19T03:08:08.828Z,19.49
2016-12-19T03:09:08.815Z,19.55
2016-12-19T03:10:08.796Z,19.42
2016-12-19T03:11:08.460Z,19.5
2016-12-19T03:12:08.759Z,19.5
2016-12-19T03:13:08.742Z,19.42
2016-12-19T03:14:08.407Z,19.47
2016-12-19T03:15:08.407Z,19.4
2016-12-19T03:16:08.378Z,19.45
2016-12-19T03:17:08.673Z,19.47
2016-12-19T03:18:08.662Z,19.45
2016-12-19T03:19:08.326Z,19.42
2016-12-19T03:20:08.311Z,19.43
2016-12-19T03:21:08.610Z,19.42
2016-12-19T03:22:08.276Z,19.52
2016-12-19T03:23:08.576Z,19.4
2016-12-19T03:24:08.561Z,19.47
2016-12-19T03:25:08.229Z,19.42
2016-12-19T03:26:08.524Z,19.43
2016-12-19T03:27:08.508Z,19.46
2016-12-19T03:28:08.493Z,19.49
2016-12-19T03:29:08.478Z,19.47
2016-12-19T03:30:08.459Z,19.5
2016-12-19T03:31:08.132Z,19.5
2016-12-19T03:32:08.113Z,19.4
2016-12-19T03:33:08.409Z,19.47
2016-12-19T03:34:08.078Z,19.49
2016-12-19T03:35:08.373Z,19.49
2016-12-19T03:36:08.041Z,19.43
2016-12-19T03:37:08.336Z,19.46
2016-12-19T03:38:08.322Z,19.45
2016-12-19T03:39:08.308Z,19.45
2016-12-19T03:40:08.291Z,19.43
2016-12-19T03:41:08.275Z,19.4
2016-12-19T03:42:07.941Z,19.46
2016-12-19T03:43:07.931Z,19.38
2016-12-19T03:44:07.904Z,19.43
2016-12-19T03:45:07.575Z,19.43
2016-12-19T03:46:08.187Z,19.32
2016-12-19T03:47:08.170Z,19.42
2016-12-19T03:48:08.159Z,19.4
2016-12-19T03:49:08.136Z,19.28
2016-12-19T03:50:07.804Z,19.34
2016-12-19T03:51:08.102Z,19.43
2016-12-19T03:52:08.091Z,19.4
2016-12-19T03:53:08.069Z,19.45
2016-12-19T03:54:07.737Z,19.38
2016-12-19T03:55:08.036Z,19.42
2016-12-19T03:56:08.017Z,19.3
2016-12-19T03:57:07.692Z,19.45
2016-12-19T03:58:07.987Z,19.28
2016-12-19T03:59:07.969Z,19.27
2016-12-19T04:00:07.644Z,19.34
2016-12-19T04:01:07.619Z,19.34
2016-12-19T04:02:07.605Z,19.32
2016-12-19T04:03:07.903Z,19.32
2016-12-19T04:04:07.571Z,19.32
2016-12-19T04:05:07.876Z,19.38
2016-12-19T04:06:07.535Z,19.35
2016-12-19T04:07:07.513Z,19.31
2016-12-19T04:08:07.817Z,19.38
2016-12-19T04:09:07.481Z,19.39
2016-12-19T04:10:07.784Z,19.32
2016-12-19T04:11:07.765Z,19.35
2016-12-19T04:12:07.438Z,19.39
2016-12-19T04:13:07.736Z,19.38
2016-12-19T04:14:07.721Z,19.38
2016-12-19T04:15:07.698Z,19.39
2016-12-19T04:16:07.683Z,19.34
2016-12-19T04:17:07.036Z,19.35
2016-12-19T04:18:07.649Z,19.42
2016-12-19T04:19:07.631Z,19.32
2016-12-19T04:20:06.988Z,19.3
2016-12-19T04:21:07.599Z,19.34
2016-12-19T04:22:07.579Z,19.28
2016-12-19T04:23:07.563Z,19.25
2016-12-19T04:24:07.229Z,19.34
2016-12-19T04:25:07.526Z,19.43
2016-12-19T04:26:07.198Z,19.4
2016-12-19T04:27:07.502Z,19.25
2016-12-19T04:28:07.488Z,19.34
2016-12-19T04:29:07.465Z,19.27
2016-12-19T04:30:07.455Z,19.25
2016-12-19T04:31:07.431Z,19.27
2016-12-19T04:32:07.409Z,19.28
2016-12-19T04:33:07.076Z,19.31
2016-12-19T04:34:07.061Z,19.25
2016-12-19T04:35:07.048Z,19.28
2016-12-19T04:36:07.348Z,19.25
2016-12-19T04:37:07.011Z,19.3
2016-12-19T04:38:07.310Z,19.38
2016-12-19T04:39:06.985Z,19.31
2016-12-19T04:40:07.284Z,19.27
2016-12-19T04:41:06.944Z,19.25
2016-12-19T04:42:06.926Z,19.28
2016-12-19T04:43:06.912Z,19.28
2016-12-19T04:44:07.205Z,19.27
2016-12-19T04:45:07.197Z,19.28
2016-12-19T04:46:06.858Z,19.27
2016-12-19T04:47:07.153Z,19.25
2016-12-19T04:48:07.138Z,19.27
2016-12-19T04:49:06.809Z,19.27
2016-12-19T04:50:07.104Z,19.25
2016-12-19T04:51:07.091Z,19.25
2016-12-19T04:52:06.757Z,19.3
2016-12-19T04:53:07.064Z,19.27
2016-12-19T04:54:07.041Z,19.23
2016-12-19T04:55:07.022Z,19.28
2016-12-19T04:56:06.690Z,19.24
2016-12-19T04:57:06.991Z,19.27
2016-12-19T04:58:06.970Z,19.27
2016-12-19T04:59:06.640Z,19.3
2016-12-19T05:00:06.935Z,19.2
2016-12-19T05:01:06.606Z,19.21
2016-12-19T05:02:06.905Z,19.17
2016-12-19T05:03:06.572Z,19.2
2016-12-19T05:04:06.873Z,19.24
2016-12-19T05:05:06.854Z,19.15
2016-12-19T05:06:06.832Z,19.3
2016-12-19T05:07:06.819Z,19.31
2016-12-19T05:08:06.804Z,19.3
2016-12-19T05:09:06.152Z,19.47
2016-12-19T05:10:06.771Z,19.46
2016-12-19T05:11:06.749Z,19.6
2016-12-19T05:12:06.419Z,19.62
2016-12-19T05:13:06.400Z,19.64
2016-12-19T05:14:06.701Z,19.71
2016-12-19T05:15:06.365Z,19.79
2016-12-19T05:16:06.688Z,19.8
2016-12-19T05:17:06.647Z,19.85
2016-12-19T05:18:06.638Z,19.95
2016-12-19T05:19:06.619Z,20.02
2016-12-19T05:20:06.293Z,19.92
2016-12-19T05:21:05.950Z,20.05
2016-12-19T05:22:06.595Z,20.12
2016-12-19T05:23:06.236Z,20.13
2016-12-19T05:24:06.216Z,20.15
2016-12-19T05:25:06.517Z,20.1
2016-12-19T05:26:06.184Z,20.1
2016-12-19T05:27:06.479Z,20.2
2016-12-19T05:28:06.463Z,20.15
2016-12-19T05:29:06.445Z,20.19
2016-12-19T05:30:06.431Z,20.19
2016-12-19T05:31:06.418Z,20.19
2016-12-19T05:32:06.081Z,20.25
2016-12-19T05:33:06.382Z,20.23
2016-12-19T05:34:06.053Z,20.2
2016-12-19T05:35:06.349Z,20.13
2016-12-19T05:36:06.334Z,20.2
2016-12-19T05:37:06.313Z,20.22
2016-12-19T05:38:05.982Z,20.27
2016-12-19T05:39:06.282Z,20.2
2016-12-19T05:40:05.955Z,20.2
2016-12-19T05:41:05.936Z,20.19
2016-12-19T05:42:05.599Z,20.19
2016-12-19T05:43:06.214Z,20.17
2016-12-19T05:44:06.200Z,20.15
2016-12-19T05:45:06.184Z,20.2
2016-12-19T05:46:06.166Z,20.16
2016-12-19T05:47:05.839Z,20.17
2016-12-19T05:48:05.817Z,20.23
2016-12-19T05:49:05.797Z,20.2
2016-12-19T05:50:05.783Z,20.23
2016-12-19T05:51:06.078Z,20.22
2016-12-19T05:52:05.435Z,20.17
2016-12-19T05:53:06.045Z,20.2
2016-12-19T05:54:06.034Z,20.22
2016-12-19T05:55:06.010Z,20.2
2016-12-19T05:56:06.001Z,20.13
2016-12-19T05:57:05.978Z,20.22
2016-12-19T05:58:05.655Z,20.23
2016-12-19T05:59:05.939Z,20.26
2016-12-19T06:00:05.928Z,20.33
2016-12-19T06:01:05.911Z,20.3
2016-12-19T06:02:05.901Z,20.25
2016-12-19T06:03:05.573Z,20.25
2016-12-19T06:04:05.551Z,20.3
2016-12-19T06:05:05.860Z,20.33
2016-12-19T06:06:05.516Z,20.35
2016-12-19T06:07:05.503Z,20.27
2016-12-19T06:08:05.481Z,20.33
2016-12-19T06:09:05.780Z,20.31
2016-12-19T06:10:05.761Z,20.25
2016-12-19T06:11:05.748Z,20.3
2016-12-19T06:12:05.417Z,20.19
2016-12-19T06:13:05.400Z,20.16
2016-12-19T06:14:05.701Z,20.19
2016-12-19T06:15:05.371Z,20.01
2016-12-19T06:16:05.657Z,20.07
2016-12-19T06:17:05.336Z,19.9
2016-12-19T06:18:05.631Z,19.97
2016-12-19T06:19:05.620Z,19.89
2016-12-19T06:20:05.286Z,20.04
2016-12-19T06:21:04.950Z,19.95
2016-12-19T06:22:05.564Z,20.05
2016-12-19T06:23:05.234Z,20.15
2016-12-19T06:24:05.221Z,20.07
2016-12-19T06:25:05.523Z,20.08
2016-12-19T06:26:05.499Z,20.1
2016-12-19T06:27:05.482Z,20.12
2016-12-19T06:28:05.151Z,20.2
2016-12-19T06:29:05.133Z,20.19
2016-12-19T06:30:05.439Z,20.25
2016-12-19T06:31:04.790Z,20.26
2016-12-19T06:32:05.413Z,20.17
2016-12-19T06:33:05.068Z,20.2
2016-12-19T06:34:05.371Z,20.19
2016-12-19T06:35:05.042Z,20.2
2016-12-19T06:36:05.336Z,20.23
2016-12-19T06:37:05.013Z,20.25
2016-12-19T06:38:05.300Z,20.27
2016-12-19T06:39:04.969Z,20.31
2016-12-19T06:40:04.638Z,20.26
2016-12-19T06:41:05.252Z,20.33
2016-12-19T06:42:05.239Z,20.3
2016-12-19T06:43:04.902Z,20.33
2016-12-19T06:44:05.201Z,20.31
2016-12-19T06:45:04.876Z,20.3
2016-12-19T06:46:05.170Z,20.38
2016-12-19T06:47:05.153Z,20.34
2016-12-19T06:48:05.136Z,20.37
2016-12-19T06:49:05.121Z,20.3
2016-12-19T06:50:05.104Z,20.31
2016-12-19T06:51:05.092Z,20.34
2016-12-19T06:52:05.073Z,20.34
2016-12-19T06:53:05.056Z,20.35
2016-12-19T06:54:04.723Z,20.34
2016-12-19T06:55:04.710Z,20.34
2016-12-19T06:56:05.011Z,20.34
2016-12-19T06:57:05.023Z,20.35
2016-12-19T06:58:04.984Z,20.35
2016-12-19T06:59:04.954Z,20.37
2016-12-19T07:00:04.633Z,20.4
2016-12-19T07:01:04.930Z,20.37
2016-12-19T07:02:04.907Z,20.34
2016-12-19T07:03:04.892Z,20.35
2016-12-19T07:04:04.566Z,20.34
2016-12-19T07:05:04.548Z,20.35
2016-12-19T07:06:04.852Z,20.35
2016-12-19T07:07:04.825Z,20.41
2016-12-19T07:08:04.492Z,20.31
2016-12-19T07:09:04.798Z,20.33
2016-12-19T07:10:04.466Z,20.41
2016-12-19T07:11:04.758Z,20.4
2016-12-19T07:12:04.451Z,20.4
2016-12-19T07:13:04.724Z,20.5
2016-12-19T07:14:04.390Z,20.42
2016-12-19T07:15:04.699Z,20.38
2016-12-19T07:16:04.686Z,20.46
2016-12-19T07:17:04.667Z,20.44
2016-12-19T07:18:04.648Z,20.44
2016-12-19T07:19:04.623Z,20.48
2016-12-19T07:20:04.314Z,20.53
2016-12-19T07:21:04.596Z,20.5
2016-12-19T07:22:04.579Z,20.51
2016-12-19T07:23:04.570Z,20.46
2016-12-19T07:24:04.547Z,20.5
2016-12-19T07:25:04.538Z,20.48
2016-12-19T07:26:03.882Z,20.53
2016-12-19T07:27:04.185Z,20.5
2016-12-19T07:28:04.480Z,20.48
2016-12-19T07:29:04.463Z,20.5
2016-12-19T07:30:04.450Z,20.48
2016-12-19T07:31:04.430Z,20.54
2016-12-19T07:32:04.414Z,20.53
2016-12-19T07:33:04.400Z,20.53
2016-12-19T07:34:04.073Z,20.5
2016-12-19T07:35:04.056Z,20.5
2016-12-19T07:36:04.034Z,20.48
2016-12-19T07:37:04.329Z,20.44
2016-12-19T07:38:04.010Z,20.51
2016-12-19T07:39:03.985Z,20.46
2016-12-19T07:40:03.967Z,20.46
2016-12-19T07:41:04.303Z,20.46
2016-12-19T07:42:04.253Z,20.46
2016-12-19T07:43:04.240Z,20.5
2016-12-19T07:44:04.221Z,20.42
2016-12-19T07:45:04.211Z,20.51
2016-12-19T07:46:04.186Z,20.51
2016-12-19T07:47:04.173Z,20.48
2016-12-19T07:48:03.846Z,20.51
2016-12-19T07:49:03.824Z,20.51
2016-12-19T07:50:03.814Z,20.51
2016-12-19T07:51:03.792Z,20.53
2016-12-19T07:52:04.121Z,20.48
2016-12-19T07:53:03.756Z,20.51
2016-12-19T07:54:04.062Z,20.6
2016-12-19T07:55:03.719Z,20.61
2016-12-19T07:56:04.028Z,20.57
2016-12-19T07:57:04.009Z,20.57
2016-12-19T07:58:03.994Z,20.57
2016-12-19T07:59:03.976Z,20.6
2016-12-19T08:00:03.651Z,20.58
2016-12-19T08:01:03.944Z,20.58
2016-12-19T08:02:03.925Z,20.5
2016-12-19T08:03:03.916Z,20.61
2016-12-19T08:04:03.580Z,20.6
2016-12-19T08:05:03.559Z,20.6
2016-12-19T08:06:03.864Z,20.56
2016-12-19T08:07:03.849Z,20.56
2016-12-19T08:08:03.836Z,20.66
2016-12-19T08:09:03.817Z,20.63
2016-12-19T08:10:03.801Z,20.61
2016-12-19T08:11:03.782Z,20.61
2016-12-19T08:12:03.449Z,20.63
2016-12-19T08:13:03.432Z,20.6
2016-12-19T08:14:03.736Z,20.56
2016-12-19T08:15:03.086Z,20.61
2016-12-19T08:16:03.702Z,20.61
2016-12-19T08:17:03.371Z,20.61
2016-12-19T08:18:03.668Z,20.61
2016-12-19T08:19:03.339Z,20.61
2016-12-19T08:20:03.639Z,20.63
2016-12-19T08:21:03.628Z,20.66
2016-12-19T08:22:03.287Z,20.75
2016-12-19T08:23:03.589Z,20.78
2016-12-19T08:24:03.260Z,20.33
2016-12-19T08:25:03.556Z,19.4
2016-12-19T08:26:03.540Z,19.16
2016-12-19T08:27:03.526Z,19.5
2016-12-19T08:28:03.193Z,19.61
2016-12-19T08:29:03.499Z,19.67
2016-12-19T08:30:03.477Z,19.8
2016-12-19T08:31:03.134Z,19.97
2016-12-19T08:32:03.441Z,20.1
2016-12-19T08:33:03.106Z,20.07
2016-12-19T08:34:03.412Z,20.2
2016-12-19T08:35:03.075Z,20.17
2016-12-19T08:36:03.372Z,20.25
2016-12-19T08:37:03.359Z,20.27
2016-12-19T08:38:03.026Z,20.37
2016-12-19T08:39:03.322Z,20.41
2016-12-19T08:40:03.312Z,20.44
2016-12-19T08:41:03.297Z,20.54
2016-12-19T08:42:03.275Z,20.48
2016-12-19T08:43:03.259Z,20.53
2016-12-19T08:44:02.929Z,20.58
2016-12-19T08:45:03.233Z,20.69
2016-12-19T08:46:03.212Z,20.73
2016-12-19T08:47:03.200Z,20.75
2016-12-19T08:48:02.865Z,20.72
2016-12-19T08:49:03.164Z,20.76
2016-12-19T08:50:03.142Z,20.76
2016-12-19T08:51:03.131Z,20.71
2016-12-19T08:52:03.113Z,20.76
2016-12-19T08:53:03.100Z,20.81
2016-12-19T08:54:03.077Z,20.91
2016-12-19T08:55:03.061Z,20.87
2016-12-19T08:56:03.044Z,20.85
2016-12-19T08:57:02.712Z,20.9
2016-12-19T08:58:03.009Z,20.9
2016-12-19T08:59:02.993Z,20.87
2016-12-19T09:00:02.664Z,20.88
2016-12-19T09:01:02.997Z,20.87
2016-12-19T09:02:02.642Z,20.85
2016-12-19T09:03:02.934Z,20.82
2016-12-19T09:04:02.921Z,20.85
2016-12-19T09:05:02.897Z,20.87
2016-12-19T09:06:02.884Z,20.9
2016-12-19T09:07:02.867Z,20.88
2016-12-19T09:08:02.856Z,20.85
2016-12-19T09:09:02.832Z,20.83
2016-12-19T09:10:02.814Z,20.88
2016-12-19T09:11:02.793Z,20.87
2016-12-19T09:12:02.779Z,20.76
2016-12-19T09:13:02.442Z,20.64
2016-12-19T09:14:02.747Z,20.44
2016-12-19T09:15:02.720Z,20.46
2016-12-19T09:16:02.706Z,20.46
2016-12-19T09:17:02.685Z,20.35
2016-12-19T09:18:02.373Z,20.22
2016-12-19T09:19:02.640Z,20.26
2016-12-19T09:20:02.617Z,20.26
2016-12-19T09:21:02.288Z,20.19
2016-12-19T09:22:02.576Z,20.25
2016-12-19T09:23:02.567Z,20.15
2016-12-19T09:24:02.530Z,20.07
2016-12-19T09:25:02.196Z,20
2016-12-19T09:26:02.502Z,19.79
2016-12-19T09:27:02.472Z,19.67
2016-12-19T09:28:02.454Z,19.27
2016-12-19T09:29:02.440Z,19.02
2016-12-19T09:30:02.419Z,18.57
2016-12-19T09:31:02.392Z,18.53
2016-12-19T09:32:02.058Z,18.32
2016-12-19T09:33:02.352Z,17.92
2016-12-19T09:34:02.331Z,17.86
2016-12-19T09:35:02.312Z,18.34
2016-12-19T09:36:02.294Z,18.71
2016-12-19T09:37:02.263Z,19.12
2016-12-19T09:38:02.246Z,19.38
2016-12-19T09:39:02.229Z,19.57
2016-12-19T09:40:02.201Z,19.71
2016-12-19T09:41:01.872Z,19.79
2016-12-19T09:42:01.547Z,19.9
2016-12-19T09:43:02.148Z,19.94
2016-12-19T09:44:02.126Z,20.04
2016-12-19T09:45:02.095Z,20.1
2016-12-19T09:46:02.079Z,20.12
2016-12-19T09:47:02.055Z,20.16
2016-12-19T09:48:02.040Z,20.3
2016-12-19T09:49:01.709Z,20.26
2016-12-19T09:50:02.003Z,20.31
2016-12-19T09:51:01.975Z,20.38
2016-12-19T09:52:01.954Z,20.46
2016-12-19T09:53:01.932Z,20.48
2016-12-19T09:54:01.915Z,20.54
2016-12-19T09:55:01.894Z,20.53
2016-12-19T09:56:01.557Z,20.5
2016-12-19T09:57:01.535Z,20.57
2016-12-19T09:58:01.517Z,20.61
2016-12-19T09:59:01.817Z,20.68
2016-12-19T10:00:01.794Z,20.81
2016-12-19T10:01:01.773Z,20.76
2016-12-19T10:02:01.756Z,20.87
2016-12-19T10:03:01.731Z,20.81
2016-12-19T10:04:01.709Z,20.85
2016-12-19T10:05:01.686Z,20.85
